createdAt,value
2019-03-12T00:01:42.385Z,99350.44
2019-03-12T00:04:13.034Z,99354.31
2019-03-12T00:06:43.708Z,99358.44
2019-03-12T00:09:14.222Z,99359.52
2019-03-12T00:11:44.786Z,99363.80
2019-03-12T00:14:15.434Z,99368.20
2019-03-12T00:16:46.154Z,99381.63
2019-03-12T00:19:17.148Z,99387.03
2019-03-12T00:21:47.611Z,99391.13
2019-03-12T00:24:18.288Z,99383.98
2019-03-12T00:26:48.769Z,99389.12
2019-03-12T00:29:19.463Z,99394.48
2019-03-12T00:31:50.000Z,99397.17
2019-03-12T00:34:21.158Z,99400.50
2019-03-12T00:36:51.688Z,99406.17
2019-03-12T00:39:22.073Z,99401.17
2019-03-12T00:41:53.277Z,99409.46
2019-03-12T00:44:24.507Z,99407.58
2019-03-12T00:46:55.885Z,99406.07
2019-03-12T00:49:27.138Z,99411.21
2019-03-12T00:51:58.423Z,99416.31
2019-03-12T00:54:29.003Z,99417.86
2019-03-12T00:56:59.504Z,99420.95
2019-03-12T00:59:29.969Z,99428.30
2019-03-12T01:02:00.523Z,99435.67
2019-03-12T01:04:31.112Z,99441.11
2019-03-12T01:07:01.663Z,99442.69
2019-03-12T01:09:32.172Z,99438.19
2019-03-12T01:12:02.757Z,99446.61
2019-03-12T01:14:33.293Z,99447.31
2019-03-12T01:17:04.262Z,99452.41
2019-03-12T01:19:34.875Z,99456.74
2019-03-12T01:22:05.417Z,99454.50
2019-03-12T01:24:35.729Z,99457.78
2019-03-12T01:27:06.418Z,99462.89
2019-03-12T01:29:36.904Z,99475.27
2019-03-12T01:32:07.732Z,99474.59
2019-03-12T01:34:38.252Z,99482.79
2019-03-12T01:37:08.576Z,99483.43
2019-03-12T01:39:39.053Z,99489.44
2019-03-12T01:42:09.559Z,99495.08
2019-03-12T01:44:40.075Z,99498.00
2019-03-12T01:47:10.598Z,99507.06
2019-03-12T01:49:41.048Z,99505.11
2019-03-12T01:52:11.931Z,99508.57
2019-03-12T01:54:42.318Z,99523.28
2019-03-12T01:57:12.913Z,99521.00
2019-03-12T01:59:43.309Z,99531.80
2019-03-12T02:02:13.860Z,99531.34
2019-03-12T02:04:44.331Z,99538.27
2019-03-12T02:07:14.763Z,99545.38
2019-03-12T02:09:45.278Z,99544.14
2019-03-12T02:12:15.859Z,99537.67
2019-03-12T02:14:46.389Z,99542.50
2019-03-12T02:17:16.804Z,99543.01
2019-03-12T02:19:47.233Z,99547.52
2019-03-12T02:22:17.743Z,99560.63
2019-03-12T02:24:52.783Z,99554.72
2019-03-12T02:27:20.462Z,99565.73
2019-03-12T02:29:50.897Z,99561.63
2019-03-12T02:32:21.300Z,99558.85
2019-03-12T02:34:51.708Z,99569.05
2019-03-12T02:37:22.235Z,99570.24
2019-03-12T02:39:52.640Z,99571.74
2019-03-12T02:42:23.038Z,99576.53
2019-03-12T02:44:53.474Z,99580.31
2019-03-12T02:47:24.088Z,99584.05
2019-03-12T02:49:54.653Z,99577.76
2019-03-12T02:52:25.227Z,99578.58
2019-03-12T02:54:55.640Z,99573.39
2019-03-12T02:57:26.161Z,99578.86
2019-03-12T02:59:56.679Z,99584.53
2019-03-12T03:02:27.719Z,99581.81
2019-03-12T03:04:58.321Z,99586.83
2019-03-12T03:07:47.729Z,99588.92
2019-03-12T03:10:18.287Z,99587.19
2019-03-12T03:12:49.021Z,99594.48
2019-03-12T03:15:22.807Z,99599.58
2019-03-12T03:17:53.275Z,99600.62
2019-03-12T03:20:23.904Z,99608.03
2019-03-12T03:22:54.492Z,99611.11
2019-03-12T03:25:25.053Z,99613.69
2019-03-12T03:27:55.637Z,99623.40
2019-03-12T03:30:27.082Z,99629.55
2019-03-12T03:32:58.164Z,99638.18
2019-03-12T03:35:28.612Z,99630.53
2019-03-12T03:37:59.186Z,99636.32
2019-03-12T03:40:29.623Z,99641.70
2019-03-12T03:43:00.223Z,99652.27
2019-03-12T03:45:30.721Z,99651.67
2019-03-12T03:48:01.163Z,99668.59
2019-03-12T03:50:31.919Z,99669.20
2019-03-12T03:53:02.429Z,99673.97
2019-03-12T03:55:33.039Z,99672.62
2019-03-12T03:58:03.658Z,99670.25
2019-03-12T04:00:34.299Z,99667.70
2019-03-12T04:03:04.978Z,99668.42
2019-03-12T04:05:35.576Z,99679.98
2019-03-12T04:08:06.086Z,99679.76
2019-03-12T04:10:36.650Z,99686.28
2019-03-12T04:13:07.194Z,99692.66
2019-03-12T04:15:38.019Z,99686.05
2019-03-12T04:18:08.508Z,99697.89
2019-03-12T04:20:38.990Z,99705.77
2019-03-12T04:23:09.563Z,99697.97
2019-03-12T04:25:39.983Z,99694.91
2019-03-12T04:28:10.589Z,99700.39
2019-03-12T04:30:41.033Z,99699.05
2019-03-12T04:34:02.938Z,99707.97
2019-03-12T04:36:33.398Z,99714.20
2019-03-12T04:39:05.399Z,99718.08
2019-03-12T04:41:35.837Z,99729.89
2019-03-12T04:44:06.384Z,99725.99
2019-03-12T04:46:36.791Z,99732.85
2019-03-12T04:49:07.232Z,99730.73
2019-03-12T04:51:38.347Z,99734.77
2019-03-12T04:54:08.884Z,99727.31
2019-03-12T04:56:39.353Z,99732.62
2019-03-12T04:59:09.978Z,99736.78
2019-03-12T05:01:40.523Z,99737.97
2019-03-12T05:04:11.027Z,99743.27
2019-03-12T05:06:41.442Z,99746.78
2019-03-12T05:09:11.948Z,99750.45
2019-03-12T05:11:42.423Z,99759.42
2019-03-12T05:14:28.030Z,99772.56
2019-03-12T05:17:05.757Z,99765.90
2019-03-12T05:19:36.603Z,99777.56
2019-03-12T05:22:07.157Z,99778.02
2019-03-12T05:24:37.757Z,99773.74
2019-03-12T05:27:08.499Z,99785.56
2019-03-12T05:29:38.907Z,99782.80
2019-03-12T05:32:09.539Z,99786.92
2019-03-12T05:34:40.320Z,99791.50
2019-03-12T05:37:10.819Z,99791.59
2019-03-12T05:39:41.568Z,99795.05
2019-03-12T05:42:12.388Z,99791.84
2019-03-12T05:44:42.977Z,99797.48
2019-03-12T05:47:13.349Z,99798.73
2019-03-12T05:49:44.053Z,99799.43
2019-03-12T05:52:15.053Z,99800.27
2019-03-12T05:54:45.546Z,99795.66
2019-03-12T05:57:16.098Z,99801.81
2019-03-12T05:59:46.491Z,99805.97
2019-03-12T06:02:17.196Z,99810.39
2019-03-12T06:04:47.857Z,99809.48
2019-03-12T06:07:18.550Z,99814.59
2019-03-12T06:09:49.396Z,99818.20
2019-03-12T06:12:20.043Z,99809.80
2019-03-12T06:14:50.646Z,99815.33
2019-03-12T06:17:21.986Z,99817.73
2019-03-12T06:19:52.569Z,99813.91
2019-03-12T06:22:23.149Z,99813.84
2019-03-12T06:24:53.628Z,99823.47
2019-03-12T06:27:25.753Z,99830.89
2019-03-12T06:29:56.313Z,99826.45
2019-03-12T06:32:40.129Z,99843.86
2019-03-12T06:35:21.978Z,99840.05
2019-03-12T06:38:01.150Z,99850.71
2019-03-12T06:40:43.076Z,99857.53
2019-03-12T06:43:32.410Z,99855.05
2019-03-12T06:46:23.443Z,99853.92
2019-03-12T06:49:12.727Z,99869.16
2019-03-12T06:52:02.220Z,99863.91
2019-03-12T06:54:39.723Z,99857.30
2019-03-12T06:57:20.969Z,99870.34
2019-03-12T07:00:02.296Z,99873.20
2019-03-12T07:02:53.887Z,99871.69
2019-03-12T07:05:43.300Z,99889.77
2019-03-12T07:08:32.705Z,99890.95
2019-03-12T07:11:22.117Z,99883.78
2019-03-12T07:14:11.565Z,99892.69
2019-03-12T07:17:00.938Z,99890.64
2019-03-12T07:19:50.392Z,99894.25
2019-03-12T07:22:39.866Z,99898.30
2019-03-12T07:25:29.503Z,99901.77
2019-03-12T07:28:09.999Z,99896.67
2019-03-12T07:30:54.443Z,99886.47
2019-03-12T07:33:34.304Z,99891.45
2019-03-12T07:36:11.466Z,99880.80
2019-03-12T07:39:00.935Z,99879.95
2019-03-12T07:41:43.918Z,99879.66
2019-03-12T07:44:33.380Z,99889.46
2019-03-12T07:47:10.099Z,99893.29
2019-03-12T07:49:59.425Z,99892.25
2019-03-12T07:52:48.591Z,99886.60
2019-03-12T07:55:38.046Z,99894.80
2019-03-12T07:58:35.632Z,99904.88
2019-03-12T08:01:18.675Z,99916.50
2019-03-12T08:04:07.956Z,99909.56
2019-03-12T08:06:57.357Z,99903.45
2019-03-12T08:09:35.772Z,99908.52
2019-03-12T08:12:16.628Z,99898.03
2019-03-12T08:15:02.047Z,99899.57
2019-03-12T08:17:42.294Z,99900.62
2019-03-12T08:20:17.818Z,99901.96
2019-03-12T08:22:54.853Z,99899.65
2019-03-12T08:25:44.628Z,99894.84
2019-03-12T08:28:25.573Z,99910.93
2019-03-12T08:31:03.101Z,99904.87
2019-03-12T08:33:51.012Z,99910.00
2019-03-12T08:36:34.567Z,99912.80
2019-03-12T08:39:25.793Z,99905.20
2019-03-12T08:42:15.208Z,99906.92
2019-03-12T08:45:04.658Z,99916.97
2019-03-12T08:47:53.904Z,99910.05
2019-03-12T08:50:34.407Z,99907.28
2019-03-12T08:53:23.740Z,99912.44
2019-03-12T08:56:13.180Z,99914.91
2019-03-12T08:59:02.686Z,99900.05
2019-03-12T09:01:53.432Z,99916.63
2019-03-12T09:04:42.715Z,99910.52
2019-03-12T09:07:20.184Z,99921.75
2019-03-12T09:10:05.142Z,99915.79
2019-03-12T09:12:54.683Z,99914.53
2019-03-12T09:15:45.819Z,99918.05
2019-03-12T09:18:32.935Z,99917.09
2019-03-12T09:21:22.507Z,99914.33
2019-03-12T09:24:12.157Z,99898.48
2019-03-12T09:26:55.469Z,99897.47
2019-03-12T09:29:44.663Z,99892.94
2019-03-12T09:32:33.998Z,99892.25
2019-03-12T09:35:24.077Z,99888.80
2019-03-12T09:38:05.646Z,99892.02
2019-03-12T09:40:46.228Z,99883.62
2019-03-12T09:43:35.458Z,99884.13
2019-03-12T09:46:24.864Z,99882.92
2019-03-12T09:49:14.573Z,99878.85
2019-03-12T09:52:04.037Z,99880.58
2019-03-12T09:54:46.157Z,99891.56
2019-03-12T09:57:35.573Z,99883.80
2019-03-12T10:00:27.218Z,99884.41
2019-03-12T10:03:13.385Z,99889.57
2019-03-12T10:06:02.872Z,99890.80
2019-03-12T10:08:52.203Z,99886.24
2019-03-12T10:11:35.697Z,99889.94
2019-03-12T10:14:25.199Z,99882.39
2019-03-12T10:17:14.554Z,99877.48
2019-03-12T10:20:04.145Z,99876.70
2019-03-12T10:22:53.443Z,99869.20
2019-03-12T10:25:43.089Z,99879.19
2019-03-12T10:28:34.205Z,99867.46
2019-03-12T10:31:17.542Z,99867.53
2019-03-12T10:34:07.048Z,99875.20
2019-03-12T10:36:48.576Z,99866.20
2019-03-12T10:40:10.216Z,99871.87
2019-03-12T10:43:06.864Z,99870.91
2019-03-12T10:45:42.974Z,99872.90
2019-03-12T10:48:13.522Z,99870.97
2019-03-12T10:50:44.177Z,99849.96
2019-03-12T10:53:14.830Z,99850.20
2019-03-12T10:55:48.911Z,99855.83
2019-03-12T10:58:19.502Z,99854.05
2019-03-12T11:00:50.069Z,99853.64
2019-03-12T11:03:20.749Z,99852.02
2019-03-12T11:05:52.359Z,99854.32
2019-03-12T11:08:23.257Z,99853.34
2019-03-12T11:10:54.003Z,99867.38
2019-03-12T11:13:24.593Z,99863.82
2019-03-12T11:15:55.123Z,99860.95
2019-03-12T11:18:25.621Z,99860.02
2019-03-12T11:20:58.637Z,99859.37
2019-03-12T11:23:28.381Z,99855.05
2019-03-12T11:25:58.899Z,99851.52
2019-03-12T11:28:29.454Z,99854.28
2019-03-12T11:30:59.893Z,99844.50
2019-03-12T11:33:30.519Z,99841.29
2019-03-12T11:36:01.069Z,99846.08
2019-03-12T11:38:31.665Z,99831.11
2019-03-12T11:41:02.282Z,99835.98
2019-03-12T11:43:33.062Z,99821.69
2019-03-12T11:46:03.649Z,99821.76
2019-03-12T11:48:34.429Z,99815.81
2019-03-12T11:51:05.309Z,99816.39
2019-03-12T11:53:36.445Z,99810.80
2019-03-12T11:56:07.300Z,99818.70
2019-03-12T11:58:37.990Z,99809.36
2019-03-12T12:01:09.561Z,99801.28
2019-03-12T12:03:40.262Z,99810.58
2019-03-12T12:06:10.991Z,99802.45
2019-03-12T12:08:41.732Z,99793.49
2019-03-12T12:11:12.557Z,99792.20
2019-03-12T12:13:43.188Z,99796.80
2019-03-12T12:16:13.769Z,99791.47
2019-03-12T12:18:47.614Z,99790.58
2019-03-12T12:21:18.652Z,99787.56
2019-03-12T12:23:49.408Z,99783.79
2019-03-12T12:26:20.071Z,99779.27
2019-03-12T12:28:50.628Z,99774.33
2019-03-12T12:31:21.126Z,99764.53
2019-03-12T12:33:52.165Z,99771.68
2019-03-12T12:36:22.648Z,99770.17
2019-03-12T12:38:53.985Z,99764.52
2019-03-12T12:41:24.523Z,99768.99
2019-03-12T12:43:55.193Z,99762.17
2019-03-12T12:46:25.866Z,99758.07
2019-03-12T12:48:56.447Z,99758.33
2019-03-12T12:51:27.030Z,99757.09
2019-03-12T12:53:57.667Z,99752.62
2019-03-12T12:56:28.224Z,99742.08
2019-03-12T12:58:58.836Z,99731.76
2019-03-12T13:01:29.653Z,99732.93
2019-03-12T13:04:00.141Z,99718.70
2019-03-12T13:06:30.652Z,99718.45
2019-03-12T13:09:01.774Z,99718.66
2019-03-12T13:11:32.307Z,99716.02
2019-03-12T13:14:02.888Z,99710.84
2019-03-12T13:16:33.540Z,99711.18
2019-03-12T13:19:04.039Z,99716.36
2019-03-12T13:21:34.523Z,99713.19
2019-03-12T13:24:05.207Z,99715.59
2019-03-12T13:26:35.750Z,99713.00
2019-03-12T13:29:06.413Z,99712.67
2019-03-12T13:31:37.028Z,99699.52
2019-03-12T13:34:07.622Z,99698.72
2019-03-12T13:36:38.118Z,99698.94
2019-03-12T13:39:09.804Z,99693.59
2019-03-12T13:41:40.456Z,99683.31
2019-03-12T13:44:11.126Z,99681.31
2019-03-12T13:46:41.709Z,99671.12
2019-03-12T13:49:12.984Z,99671.27
2019-03-12T13:51:43.567Z,99666.37
2019-03-12T13:54:14.215Z,99658.50
2019-03-12T13:56:44.723Z,99657.06
2019-03-12T13:59:15.226Z,99652.36
2019-03-12T14:01:45.708Z,99649.43
2019-03-12T14:04:16.356Z,99658.95
2019-03-12T14:06:47.024Z,99651.19
2019-03-12T14:09:18.024Z,99638.06
2019-03-12T14:11:48.698Z,99644.75
2019-03-12T14:14:19.253Z,99636.25
2019-03-12T14:16:49.803Z,99643.32
2019-03-12T14:19:20.292Z,99639.95
2019-03-12T14:21:51.227Z,99634.75
2019-03-12T14:24:21.695Z,99635.06
2019-03-12T14:26:52.352Z,99625.49
2019-03-12T14:29:22.862Z,99631.45
2019-03-12T14:31:53.396Z,99626.73
2019-03-12T14:34:26.806Z,99630.83
2019-03-12T14:36:56.358Z,99627.19
2019-03-12T14:39:26.809Z,99630.88
2019-03-12T14:41:57.619Z,99620.47
2019-03-12T14:44:28.079Z,99620.74
2019-03-12T14:46:58.593Z,99622.92
2019-03-12T14:49:29.202Z,99611.11
2019-03-12T14:52:28.633Z,99618.83
2019-03-12T14:54:59.626Z,99612.85
2019-03-12T14:57:30.252Z,99605.08
2019-03-12T15:00:00.805Z,99606.59
2019-03-12T15:02:31.718Z,99604.63
2019-03-12T15:05:02.257Z,99603.02
2019-03-12T15:07:32.854Z,99596.89
2019-03-12T15:10:03.514Z,99588.45
2019-03-12T15:12:34.801Z,99576.25
2019-03-12T15:15:06.414Z,99583.46
2019-03-12T15:17:37.291Z,99571.31
2019-03-12T15:20:09.534Z,99567.47
2019-03-12T15:22:40.546Z,99571.00
2019-03-12T15:25:11.529Z,99562.77
2019-03-12T15:27:42.082Z,99560.91
2019-03-12T15:30:17.064Z,99553.18
2019-03-12T15:32:47.609Z,99549.33
2019-03-12T15:35:18.338Z,99551.45
2019-03-12T15:37:48.868Z,99547.22
2019-03-12T15:40:19.725Z,99540.58
2019-03-12T15:42:50.428Z,99535.33
2019-03-12T15:45:21.033Z,99539.41
2019-03-12T15:47:51.654Z,99534.48
2019-03-12T15:50:22.292Z,99520.39
2019-03-12T15:52:52.885Z,99520.13
2019-03-12T15:55:23.707Z,99519.11
2019-03-12T15:57:54.353Z,99516.27
2019-03-12T16:00:27.986Z,99516.05
2019-03-12T16:02:58.599Z,99513.27
2019-03-12T16:05:29.158Z,99507.37
2019-03-12T16:07:59.636Z,99502.59
2019-03-12T16:10:30.317Z,99503.23
2019-03-12T16:13:00.923Z,99500.98
2019-03-12T16:15:31.863Z,99496.56
2019-03-12T16:18:08.757Z,99499.14
2019-03-12T16:20:39.354Z,99490.48
2019-03-12T16:23:09.952Z,99483.09
2019-03-12T16:25:40.699Z,99484.97
2019-03-12T16:28:11.439Z,99482.41
2019-03-12T16:30:42.095Z,99476.14
2019-03-12T16:33:13.695Z,99475.80
2019-03-12T16:35:50.519Z,99472.01
2019-03-12T16:38:21.022Z,99467.66
2019-03-12T16:40:51.487Z,99470.95
2019-03-12T16:43:24.125Z,99464.95
2019-03-12T16:45:54.852Z,99462.91
2019-03-12T16:48:25.596Z,99460.39
2019-03-12T16:50:58.589Z,99459.37
2019-03-12T16:53:29.195Z,99463.28
2019-03-12T16:55:59.948Z,99458.19
2019-03-12T16:58:30.546Z,99460.55
2019-03-12T17:01:01.285Z,99456.34
2019-03-12T17:03:33.419Z,99447.02
2019-03-12T17:06:03.993Z,99450.86
2019-03-12T17:08:34.772Z,99444.06
2019-03-12T17:11:05.658Z,99445.09
2019-03-12T17:13:37.357Z,99440.61
2019-03-12T17:16:08.588Z,99436.77
2019-03-12T17:18:47.512Z,99440.62
2019-03-12T17:21:18.394Z,99440.12
2019-03-12T17:23:53.359Z,99433.20
2019-03-12T17:26:24.093Z,99430.63
2019-03-12T17:28:55.928Z,99430.11
2019-03-12T17:31:33.414Z,99425.78
2019-03-12T17:34:05.334Z,99422.97
2019-03-12T17:36:37.588Z,99417.86
2019-03-12T17:39:10.768Z,99416.83
2019-03-12T17:41:45.578Z,99407.45
2019-03-12T17:44:17.324Z,99401.31
2019-03-12T17:46:53.115Z,99398.63
2019-03-12T17:49:26.948Z,99399.66
2019-03-12T17:51:57.628Z,99400.27
2019-03-12T17:54:32.116Z,99392.47
2019-03-12T17:57:02.115Z,99383.11
2019-03-12T17:59:33.913Z,99384.44
2019-03-12T18:02:05.818Z,99377.39
2019-03-12T18:04:36.528Z,99385.72
2019-03-12T18:07:07.273Z,99382.28
2019-03-12T18:09:38.899Z,99378.69
2019-03-12T18:12:09.770Z,99377.27
2019-03-12T18:14:45.084Z,99370.75
2019-03-12T18:17:21.594Z,99374.09
2019-03-12T18:19:55.394Z,99366.02
2019-03-12T18:22:31.587Z,99363.08
2019-03-12T18:25:05.491Z,99355.39
2019-03-12T18:27:38.659Z,99348.73
2019-03-12T18:30:12.884Z,99340.66
2019-03-12T18:32:52.640Z,99332.33
2019-03-12T18:37:46.113Z,99323.73
2019-03-12T18:40:21.021Z,99323.62
2019-03-12T18:42:56.942Z,99318.00
2019-03-12T18:45:30.033Z,99313.02
2019-03-12T18:48:01.133Z,99307.52
2019-03-12T18:50:36.965Z,99305.61
2019-03-12T18:53:11.377Z,99303.16
2019-03-12T18:56:08.968Z,99304.02
2019-03-12T18:58:40.948Z,99308.75
2019-03-12T19:01:20.473Z,99294.43
2019-03-12T19:03:57.293Z,99288.02
2019-03-12T19:06:41.121Z,99290.06
2019-03-12T19:09:15.218Z,99287.93
2019-03-12T19:11:57.717Z,99290.36
2019-03-12T19:14:30.827Z,99290.36
2019-03-12T19:17:10.167Z,99287.59
2019-03-12T19:19:40.885Z,99282.23
2019-03-12T19:22:15.808Z,99270.86
2019-03-12T19:24:46.670Z,99265.37
2019-03-12T19:27:19.463Z,99252.32
2019-03-12T19:29:50.197Z,99257.04
2019-03-12T19:32:31.316Z,99245.42
2019-03-12T19:35:09.107Z,99242.11
2019-03-12T19:37:42.379Z,99244.16
2019-03-12T19:40:20.322Z,99235.97
2019-03-12T19:42:53.708Z,99231.64
2019-03-12T19:45:31.728Z,99227.78
2019-03-12T19:48:04.373Z,99221.78
2019-03-12T19:50:43.594Z,99219.23
2019-03-12T19:53:17.953Z,99213.20
2019-03-12T19:56:10.018Z,99212.59
2019-03-12T19:58:45.314Z,99209.53
2019-03-12T20:01:19.877Z,99199.67
2019-03-12T20:06:28.503Z,99193.81
2019-03-12T20:09:05.690Z,99197.62
2019-03-12T20:12:12.001Z,99193.18
2019-03-12T20:15:43.846Z,99186.03
2019-03-12T20:19:07.499Z,99183.33
2019-03-12T20:22:36.537Z,99174.01
2019-03-12T20:26:08.025Z,99165.93
2019-03-12T20:29:37.076Z,99155.46
2019-03-12T20:32:51.631Z,99142.17
2019-03-12T20:36:25.345Z,99134.80
2019-03-12T20:39:57.103Z,99132.77
2019-03-12T20:43:22.096Z,99113.97
2019-03-12T20:46:53.597Z,99106.44
2019-03-12T20:50:20.490Z,99094.69
2019-03-12T20:53:45.992Z,99088.81
2019-03-12T20:57:14.131Z,99073.73
2019-03-12T21:00:38.818Z,99067.08
2019-03-12T21:03:56.798Z,99063.87
2019-03-12T21:07:20.128Z,99050.45
2019-03-12T21:10:48.013Z,99044.36
2019-03-12T21:14:17.176Z,99036.20
2019-03-12T21:17:49.823Z,99026.22
2019-03-12T21:21:07.479Z,99022.91
2019-03-12T21:24:24.428Z,99019.23
2019-03-12T21:27:44.102Z,99015.76
2019-03-12T21:30:13.637Z,99010.66
2019-03-12T21:32:52.777Z,98998.42
2019-03-12T21:35:27.622Z,98999.94
2019-03-12T21:37:59.336Z,98989.23
2019-03-12T21:40:29.915Z,98971.36
2019-03-12T21:43:00.570Z,98972.38
2019-03-12T21:45:31.613Z,98955.22
2019-03-12T21:48:02.209Z,98946.39
2019-03-12T21:50:32.731Z,98940.52
2019-03-12T21:53:03.446Z,98939.77
2019-03-12T21:55:37.807Z,98925.21
2019-03-12T21:58:08.696Z,98918.31
2019-03-12T22:00:39.239Z,98897.72
2019-03-12T22:03:09.894Z,98902.84
2019-03-12T22:05:40.428Z,98892.86
2019-03-12T22:08:10.957Z,98892.88
2019-03-12T22:10:42.151Z,98883.38
2019-03-12T22:13:12.616Z,98879.30
2019-03-12T22:15:43.245Z,98874.42
2019-03-12T22:18:13.811Z,98857.97
2019-03-12T22:20:44.382Z,98860.20
2019-03-12T22:23:18.645Z,98851.44
2019-03-12T22:25:49.231Z,98841.59
2019-03-12T22:28:19.875Z,98840.61
2019-03-12T22:30:50.408Z,98834.59
2019-03-12T22:33:20.877Z,98829.52
2019-03-12T22:35:51.485Z,98821.50
2019-03-12T22:38:21.913Z,98814.93
2019-03-12T22:40:52.680Z,98816.70
2019-03-12T22:43:23.277Z,98803.12
2019-03-12T22:45:53.805Z,98804.35
2019-03-12T22:48:24.238Z,98794.81
2019-03-12T22:50:54.736Z,98785.48
2019-03-12T22:53:25.303Z,98778.77
2019-03-12T22:55:56.034Z,98776.94
2019-03-12T22:58:26.370Z,98772.78
2019-03-12T23:00:58.302Z,98761.16
2019-03-12T23:03:28.963Z,98754.93
2019-03-12T23:05:59.524Z,98753.01
2019-03-12T23:08:30.154Z,98745.34
2019-03-12T23:11:00.710Z,98736.52
2019-03-12T23:13:34.009Z,98732.35
2019-03-12T23:16:04.776Z,98733.45
2019-03-12T23:18:35.370Z,98727.70
2019-03-12T23:21:06.071Z,98718.16
2019-03-12T23:23:36.996Z,98709.48
2019-03-12T23:26:07.487Z,98699.27
2019-03-12T23:28:38.087Z,98692.70
2019-03-12T23:31:08.821Z,98683.65
2019-03-12T23:33:39.451Z,98672.95
2019-03-12T23:36:10.540Z,98671.67
2019-03-12T23:38:41.419Z,98657.48
2019-03-12T23:41:12.102Z,98650.03
2019-03-12T23:43:42.601Z,98648.27
2019-03-12T23:46:13.939Z,98653.22
2019-03-12T23:48:44.480Z,98635.14
2019-03-12T23:51:15.035Z,98642.17
2019-03-12T23:53:45.570Z,98646.81
2019-03-12T23:56:16.050Z,98638.39
2019-03-12T23:58:46.578Z,98642.59
